createdAt,value
2018-12-30T00:01:23.061Z,25.03
2018-12-30T00:03:51.199Z,25.77
2018-12-30T00:06:19.406Z,24.50
2018-12-30T00:08:47.571Z,25.30
2018-12-30T00:11:15.720Z,26.60
2018-12-30T00:13:43.940Z,27.47
2018-12-30T00:16:13.120Z,27.13
2018-12-30T00:18:41.330Z,29.23
2018-12-30T00:21:13.817Z,27.70
2018-12-30T00:23:42.419Z,28.13
2018-12-30T00:26:10.776Z,26.90
2018-12-30T00:28:39.409Z,27.13
2018-12-30T00:31:07.570Z,28.27
2018-12-30T00:33:37.764Z,25.67
2018-12-30T00:36:05.981Z,28.10
2018-12-30T00:38:34.067Z,25.60
2018-12-30T00:41:02.229Z,24.43
2018-12-30T00:43:30.382Z,25.60
2018-12-30T00:45:58.875Z,23.10
2018-12-30T00:48:27.035Z,25.90
2018-12-30T00:50:55.510Z,25.43
2018-12-30T00:53:24.697Z,26.67
2018-12-30T00:55:53.921Z,26.30
2018-12-30T00:58:22.055Z,23.83
2018-12-30T01:00:50.261Z,22.30
2018-12-30T01:03:18.434Z,23.00
2018-12-30T01:05:46.623Z,22.07
2018-12-30T01:08:14.790Z,22.43
2018-12-30T01:10:42.951Z,18.27
2018-12-30T01:13:11.396Z,18.83
2018-12-30T01:15:39.603Z,18.50
2018-12-30T01:18:07.774Z,18.50
2018-12-30T01:20:36.261Z,17.90
2018-12-30T01:23:04.429Z,20.97
2018-12-30T01:25:32.614Z,18.37
2018-12-30T01:28:00.827Z,22.30
2018-12-30T01:30:29.193Z,21.53
2018-12-30T01:32:57.786Z,21.17
2018-12-30T01:35:26.148Z,26.53
2018-12-30T01:37:54.288Z,24.63
2018-12-30T01:40:22.388Z,20.67
2018-12-30T01:42:50.530Z,24.73
2018-12-30T01:45:18.939Z,26.77
2018-12-30T01:47:47.092Z,23.77
2018-12-30T01:50:15.263Z,24.07
2018-12-30T01:52:43.429Z,27.50
2018-12-30T01:55:11.733Z,20.57
2018-12-30T01:57:40.175Z,24.80
2018-12-30T02:00:08.675Z,22.33
2018-12-30T02:02:37.114Z,22.57
2018-12-30T02:05:05.410Z,24.07
2018-12-30T02:07:33.512Z,25.63
2018-12-30T02:10:01.667Z,23.57
2018-12-30T02:12:30.366Z,18.60
2018-12-30T02:14:58.533Z,22.00
2018-12-30T02:17:26.705Z,19.30
2018-12-30T02:19:54.871Z,23.27
2018-12-30T02:22:23.056Z,19.47
2018-12-30T02:24:51.231Z,22.43
2018-12-30T02:27:19.367Z,21.87
2018-12-30T02:29:47.835Z,23.20
2018-12-30T02:32:16.062Z,21.43
2018-12-30T02:34:44.218Z,21.53
2018-12-30T02:37:12.397Z,23.50
2018-12-30T02:39:40.580Z,22.07
2018-12-30T02:42:08.752Z,23.43
2018-12-30T02:44:36.912Z,22.90
2018-12-30T02:47:05.402Z,22.60
2018-12-30T02:49:33.583Z,21.23
2018-12-30T02:52:03.010Z,21.10
2018-12-30T02:54:31.147Z,20.90
2018-12-30T02:56:59.333Z,20.00
2018-12-30T02:59:27.485Z,17.43
2018-12-30T03:01:55.669Z,22.40
2018-12-30T03:04:23.838Z,19.93
2018-12-30T03:06:52.653Z,16.13
2018-12-30T03:09:20.784Z,17.37
2018-12-30T03:11:54.813Z,16.87
2018-12-30T03:14:22.967Z,17.50
2018-12-30T03:16:51.159Z,15.93
2018-12-30T03:19:19.326Z,14.87
2018-12-30T03:21:47.720Z,13.37
2018-12-30T03:24:15.877Z,14.13
2018-12-30T03:26:44.040Z,17.40
2018-12-30T03:29:12.415Z,15.67
2018-12-30T03:31:40.591Z,13.97
2018-12-30T03:34:08.783Z,12.37
2018-12-30T03:36:37.178Z,15.67
2018-12-30T03:39:07.082Z,14.60
2018-12-30T03:41:35.535Z,12.53
2018-12-30T03:44:03.724Z,11.33
2018-12-30T03:46:33.177Z,11.80
2018-12-30T03:49:01.300Z,12.63
2018-12-30T03:51:29.471Z,12.23
2018-12-30T03:53:57.618Z,10.87
2018-12-30T03:56:25.805Z,12.87
2018-12-30T03:58:54.317Z,12.60
2018-12-30T04:01:23.500Z,12.57
2018-12-30T04:03:51.727Z,14.90
2018-12-30T04:06:20.089Z,14.83
2018-12-30T04:08:50.575Z,15.57
2018-12-30T04:11:19.090Z,15.23
2018-12-30T04:13:47.217Z,14.63
2018-12-30T04:16:16.506Z,17.83
2018-12-30T04:18:45.637Z,17.30
2018-12-30T04:21:14.030Z,16.93
2018-12-30T04:23:43.101Z,19.50
2018-12-30T04:26:11.274Z,19.50
2018-12-30T04:28:39.450Z,15.03
2018-12-30T04:31:08.651Z,22.83
2018-12-30T04:33:36.829Z,18.07
2018-12-30T04:36:06.232Z,18.03
2018-12-30T04:38:34.401Z,27.10
2018-12-30T04:41:03.046Z,22.30
2018-12-30T04:43:31.490Z,18.40
2018-12-30T04:45:59.647Z,20.20
2018-12-30T04:48:27.802Z,23.90
2018-12-30T04:50:55.962Z,21.83
2018-12-30T04:53:24.182Z,20.00
2018-12-30T04:55:52.320Z,18.80
2018-12-30T04:58:20.501Z,24.77
2018-12-30T05:00:48.658Z,20.67
2018-12-30T05:03:17.136Z,18.93
2018-12-30T05:05:45.324Z,18.23
2018-12-30T05:08:13.425Z,18.13
2018-12-30T05:10:41.569Z,20.57
2018-12-30T05:13:09.723Z,19.43
2018-12-30T05:15:37.911Z,22.07
2018-12-30T05:18:06.073Z,18.57
2018-12-30T05:20:34.271Z,23.70
2018-12-30T05:23:02.438Z,23.73
2018-12-30T05:25:31.629Z,18.40
2018-12-30T05:27:59.787Z,23.67
2018-12-30T05:30:28.043Z,20.77
2018-12-30T05:32:57.187Z,16.37
2018-12-30T05:35:25.403Z,17.60
2018-12-30T05:37:54.037Z,19.77
2018-12-30T05:40:22.203Z,20.60
2018-12-30T05:42:51.388Z,17.17
2018-12-30T05:45:19.588Z,18.97
2018-12-30T05:47:47.981Z,22.87
2018-12-30T05:50:16.923Z,19.10
2018-12-30T05:52:45.437Z,14.20
2018-12-30T05:55:14.929Z,19.27
2018-12-30T05:57:44.015Z,17.20
2018-12-30T06:00:13.494Z,16.80
2018-12-30T06:02:42.617Z,18.63
2018-12-30T06:05:11.106Z,16.43
2018-12-30T06:07:39.591Z,17.07
2018-12-30T06:10:07.762Z,14.23
2018-12-30T06:12:37.190Z,20.03
2018-12-30T06:15:06.058Z,17.77
2018-12-30T06:17:34.211Z,21.80
2018-12-30T06:20:02.400Z,15.35
2018-12-30T06:22:30.602Z,20.27
2018-12-30T06:24:58.741Z,22.63
2018-12-30T06:27:26.932Z,16.07
2018-12-30T06:29:55.091Z,15.73
2018-12-30T06:32:24.934Z,16.23
2018-12-30T06:34:53.088Z,13.20
2018-12-30T06:37:21.329Z,13.00
2018-12-30T06:39:50.454Z,16.37
2018-12-30T06:42:18.595Z,15.83
2018-12-30T06:44:46.796Z,19.57
2018-12-30T06:47:15.251Z,17.17
2018-12-30T06:49:43.451Z,11.17
2018-12-30T06:52:11.628Z,11.73
2018-12-30T06:54:39.789Z,20.80
2018-12-30T06:57:08.996Z,13.17
2018-12-30T06:59:38.191Z,13.43
2018-12-30T07:02:06.670Z,9.60
2018-12-30T07:04:34.819Z,9.70
2018-12-30T07:07:03.940Z,11.50
2018-12-30T07:09:33.144Z,15.70
2018-12-30T07:12:01.306Z,12.93
2018-12-30T07:14:29.480Z,12.80
2018-12-30T07:16:57.644Z,10.27
2018-12-30T07:19:25.827Z,9.27
2018-12-30T07:21:54.299Z,13.50
2018-12-30T07:24:23.508Z,11.07
2018-12-30T07:26:52.707Z,12.23
2018-12-30T07:29:56.348Z,9.47
2018-12-30T07:32:24.552Z,11.80
2018-12-30T07:34:52.759Z,12.20
2018-12-30T07:37:20.937Z,10.40
2018-12-30T07:39:49.108Z,13.03
2018-12-30T07:42:17.281Z,12.60
2018-12-30T07:44:45.424Z,16.67
2018-12-30T07:47:14.784Z,12.53
2018-12-30T07:49:44.160Z,18.13
2018-12-30T07:52:12.327Z,11.00
2018-12-30T07:54:40.485Z,11.23
2018-12-30T07:57:08.681Z,10.47
2018-12-30T07:59:40.914Z,9.30
2018-12-30T08:02:09.119Z,9.47
2018-12-30T08:04:37.519Z,10.57
2018-12-30T08:07:05.675Z,5.83
2018-12-30T08:09:34.931Z,9.93
2018-12-30T08:12:03.138Z,8.60
2018-12-30T08:14:31.541Z,12.67
2018-12-30T08:16:59.696Z,15.33
2018-12-30T08:19:28.169Z,14.13
2018-12-30T08:21:56.343Z,5.30
2018-12-30T08:24:24.508Z,11.47
2018-12-30T08:26:52.705Z,13.10
2018-12-30T08:29:20.904Z,14.80
2018-12-30T08:31:49.014Z,9.03
2018-12-30T08:34:18.138Z,15.33
2018-12-30T08:36:46.278Z,10.37
2018-12-30T08:39:15.845Z,15.30
2018-12-30T08:41:44.980Z,14.23
2018-12-30T08:44:13.184Z,10.50
2018-12-30T08:46:42.386Z,10.70
2018-12-30T08:49:10.568Z,11.67
2018-12-30T08:51:38.731Z,14.10
2018-12-30T08:54:06.905Z,14.30
2018-12-30T08:56:35.183Z,10.10
2018-12-30T08:59:06.097Z,9.43
2018-12-30T09:01:34.600Z,9.13
2018-12-30T09:04:03.797Z,8.53
2018-12-30T09:06:31.972Z,10.70
2018-12-30T09:09:00.136Z,11.13
2018-12-30T09:11:29.427Z,10.10
2018-12-30T09:13:58.539Z,11.67
2018-12-30T09:16:26.731Z,6.83
2018-12-30T09:18:54.887Z,11.57
2018-12-30T09:21:23.069Z,9.80
2018-12-30T09:23:51.239Z,13.83
2018-12-30T09:26:20.418Z,13.80
2018-12-30T09:28:48.626Z,13.40
2018-12-30T09:31:16.755Z,16.90
2018-12-30T09:33:44.929Z,12.33
2018-12-30T09:36:13.130Z,11.87
2018-12-30T09:38:41.302Z,8.20
2018-12-30T09:41:09.473Z,14.50
2018-12-30T09:43:37.633Z,13.70
2018-12-30T09:46:06.832Z,14.53
2018-12-30T09:48:35.020Z,7.30
2018-12-30T09:51:03.226Z,17.40
2018-12-30T09:53:32.936Z,8.10
2018-12-30T09:56:01.119Z,11.43
2018-12-30T09:58:29.511Z,10.93
2018-12-30T10:00:57.715Z,10.00
2018-12-30T10:03:25.887Z,9.60
2018-12-30T10:06:01.055Z,13.80
2018-12-30T10:08:30.211Z,8.23
2018-12-30T10:10:58.404Z,6.20
2018-12-30T10:13:28.591Z,12.87
2018-12-30T10:16:01.887Z,10.20
2018-12-30T10:18:29.988Z,4.73
2018-12-30T10:20:58.153Z,6.37
2018-12-30T10:23:26.327Z,8.87
2018-12-30T10:25:54.762Z,5.90
2018-12-30T10:28:40.329Z,17.57
2018-12-30T10:31:10.831Z,14.20
2018-12-30T10:33:38.994Z,12.80
2018-12-30T10:36:22.123Z,18.20
2018-12-30T10:38:50.362Z,19.77
2018-12-30T10:41:18.641Z,15.77
2018-12-30T10:43:48.073Z,17.43
2018-12-30T10:46:17.432Z,18.03
2018-12-30T10:48:45.644Z,11.37
2018-12-30T10:51:13.839Z,9.87
2018-12-30T10:53:45.203Z,17.90
2018-12-30T10:56:13.342Z,16.97
2018-12-30T10:58:41.582Z,17.70
2018-12-30T11:01:09.791Z,15.00
2018-12-30T11:03:38.272Z,15.20
2018-12-30T11:06:07.786Z,13.90
2018-12-30T11:08:36.879Z,11.97
2018-12-30T11:11:06.138Z,20.07
2018-12-30T11:13:34.464Z,18.93
2018-12-30T11:16:02.626Z,18.57
2018-12-30T11:18:30.797Z,15.23
2018-12-30T11:21:02.418Z,18.57
2018-12-30T11:23:30.865Z,7.70
2018-12-30T11:26:05.878Z,11.63
2018-12-30T11:28:35.071Z,17.73
2018-12-30T11:31:03.258Z,15.93
2018-12-30T11:33:31.404Z,25.03
2018-12-30T11:36:01.756Z,16.90
2018-12-30T11:38:30.271Z,10.67
2018-12-30T11:40:59.532Z,20.65
2018-12-30T11:43:27.701Z,14.27
2018-12-30T11:45:56.405Z,29.10
2018-12-30T11:48:51.009Z,16.00
2018-12-30T11:51:19.131Z,14.30
2018-12-30T11:53:48.331Z,15.10
2018-12-30T11:56:16.588Z,8.83
2018-12-30T11:58:44.800Z,10.17
2018-12-30T12:01:12.959Z,16.33
2018-12-30T12:03:41.167Z,19.27
2018-12-30T12:06:09.572Z,16.53
2018-12-30T12:08:39.073Z,12.67
2018-12-30T12:11:08.207Z,7.37
2018-12-30T12:13:39.857Z,14.07
2018-12-30T12:16:09.312Z,12.50
2018-12-30T12:18:41.553Z,10.37
2018-12-30T12:21:09.699Z,8.63
2018-12-30T12:23:37.869Z,8.83
2018-12-30T12:26:06.365Z,8.50
2018-12-30T12:28:34.550Z,7.77
2018-12-30T12:31:02.678Z,8.07
2018-12-30T12:33:31.799Z,6.53
2018-12-30T12:36:00.288Z,6.27
2018-12-30T12:38:28.456Z,8.47
2018-12-30T12:40:57.678Z,10.63
2018-12-30T12:43:29.968Z,10.60
2018-12-30T12:46:02.151Z,15.93
2018-12-30T12:48:31.259Z,14.93
2018-12-30T12:50:59.477Z,11.90
2018-12-30T12:53:27.865Z,10.90
2018-12-30T12:55:56.327Z,13.20
2018-12-30T12:58:24.486Z,13.93
2018-12-30T13:00:52.683Z,13.73
2018-12-30T13:03:21.902Z,22.03
2018-12-30T13:05:50.061Z,11.43
2018-12-30T13:08:18.442Z,17.43
2018-12-30T13:10:46.581Z,15.97
2018-12-30T13:13:14.770Z,15.77
2018-12-30T13:15:43.238Z,12.47
2018-12-30T13:18:11.450Z,13.77
2018-12-30T13:20:40.622Z,16.67
2018-12-30T13:23:08.779Z,14.60
2018-12-30T13:25:39.400Z,14.10
2018-12-30T13:28:08.610Z,19.20
2018-12-30T13:30:36.770Z,13.53
2018-12-30T13:33:04.963Z,12.00
2018-12-30T13:35:34.126Z,14.20
2018-12-30T13:38:04.284Z,23.67
2018-12-30T13:40:33.466Z,16.07
2018-12-30T13:43:01.647Z,18.60
2018-12-30T13:45:29.834Z,20.65
2018-12-30T13:47:59.248Z,13.47
2018-12-30T13:50:28.419Z,10.87
2018-12-30T13:52:57.621Z,14.57
2018-12-30T13:55:26.321Z,13.97
2018-12-30T13:57:54.792Z,16.57
2018-12-30T14:00:25.273Z,14.37
2018-12-30T14:02:54.413Z,16.43
2018-12-30T14:05:22.606Z,18.37
2018-12-30T14:07:51.008Z,16.83
2018-12-30T14:10:19.112Z,9.40
2018-12-30T14:12:48.329Z,14.33
2018-12-30T14:15:16.862Z,14.70
2018-12-30T14:17:44.965Z,12.97
2018-12-30T14:20:13.483Z,13.47
2018-12-30T14:22:41.734Z,10.93
2018-12-30T14:25:09.820Z,14.23
2018-12-30T14:27:38.901Z,17.53
2018-12-30T14:30:12.966Z,20.23
2018-12-30T14:32:41.068Z,13.43
2018-12-30T14:35:14.107Z,13.20
2018-12-30T14:37:43.244Z,15.17
2018-12-30T14:40:17.884Z,15.43
2018-12-30T14:42:46.065Z,23.17
2018-12-30T14:45:15.085Z,14.17
2018-12-30T14:47:44.271Z,15.70
2018-12-30T14:50:13.520Z,15.20
2018-12-30T14:52:44.807Z,14.47
2018-12-30T14:55:14.290Z,17.43
2018-12-30T14:57:42.477Z,18.50
2018-12-30T15:00:10.979Z,15.90
2018-12-30T15:02:54.565Z,19.93
2018-12-30T15:05:33.251Z,19.63
2018-12-30T15:08:01.402Z,16.70
2018-12-30T15:10:30.610Z,21.60
2018-12-30T15:12:59.275Z,22.90
2018-12-30T15:15:27.467Z,21.53
2018-12-30T15:17:55.647Z,19.03
2018-12-30T15:20:23.927Z,14.43
2018-12-30T15:22:53.328Z,16.20
2018-12-30T15:25:21.517Z,15.17
2018-12-30T15:27:49.641Z,17.43
2018-12-30T15:30:18.082Z,22.57
2018-12-30T15:32:46.300Z,22.83
2018-12-30T15:35:15.493Z,20.17
2018-12-30T15:37:43.704Z,20.20
2018-12-30T15:40:11.835Z,14.30
2018-12-30T15:42:40.033Z,19.53
2018-12-30T15:45:08.443Z,18.40
2018-12-30T15:47:37.600Z,15.70
2018-12-30T15:50:07.126Z,23.73
2018-12-30T15:52:37.327Z,28.67
2018-12-30T15:55:05.496Z,18.80
2018-12-30T15:57:33.933Z,20.37
2018-12-30T16:00:02.397Z,12.30
2018-12-30T16:02:32.614Z,17.03
2018-12-30T16:05:01.776Z,21.57
2018-12-30T16:07:29.955Z,20.60
2018-12-30T16:09:58.649Z,20.73
2018-12-30T16:12:26.794Z,19.60
2018-12-30T16:14:57.190Z,17.90
2018-12-30T16:17:25.458Z,15.77
2018-12-30T16:19:54.627Z,21.03
2018-12-30T16:22:23.110Z,26.57
2018-12-30T16:24:52.066Z,20.37
2018-12-30T16:27:20.241Z,21.53
2018-12-30T16:29:48.413Z,22.00
2018-12-30T16:32:18.552Z,24.83
2018-12-30T16:34:46.690Z,21.03
2018-12-30T16:37:15.899Z,23.27
2018-12-30T16:39:47.736Z,19.87
2018-12-30T16:42:16.306Z,25.07
2018-12-30T16:44:44.750Z,27.53
2018-12-30T16:47:12.917Z,25.97
2018-12-30T16:50:10.390Z,21.30
2018-12-30T16:52:40.102Z,20.13
2018-12-30T16:55:11.089Z,22.83
2018-12-30T16:57:39.232Z,29.93
2018-12-30T17:00:08.886Z,20.72
2018-12-30T17:02:37.154Z,19.60
2018-12-30T17:05:07.697Z,22.40
2018-12-30T17:07:36.031Z,20.57
2018-12-30T17:10:08.213Z,27.50
2018-12-30T17:12:41.374Z,24.20
2018-12-30T17:15:08.278Z,23.53
2018-12-30T17:17:39.326Z,24.53
2018-12-30T17:20:07.487Z,16.80
2018-12-30T17:22:35.736Z,19.77
2018-12-30T17:25:03.932Z,23.87
2018-12-30T17:27:32.210Z,23.23
2018-12-30T17:30:02.190Z,20.00
2018-12-30T17:32:28.907Z,22.70
2018-12-30T17:34:57.065Z,22.53
2018-12-30T17:37:25.260Z,23.70
2018-12-30T17:39:53.430Z,19.97
2018-12-30T17:42:21.899Z,25.20
2018-12-30T17:44:51.472Z,20.77
2018-12-30T17:47:22.372Z,24.17
2018-12-30T17:49:51.558Z,27.37
2018-12-30T17:52:19.960Z,18.07
2018-12-30T17:54:48.243Z,18.47
2018-12-30T17:57:16.443Z,21.40
2018-12-30T17:59:45.836Z,21.07
2018-12-30T18:02:16.136Z,22.30
2018-12-30T18:04:43.035Z,17.53
2018-12-30T18:07:12.082Z,14.53
2018-12-30T18:09:43.120Z,19.83
2018-12-30T18:12:14.777Z,14.13
2018-12-30T18:14:45.908Z,17.77
2018-12-30T18:17:16.275Z,19.67
2018-12-30T18:19:44.551Z,27.37
2018-12-30T18:22:14.060Z,18.93
2018-12-30T18:24:44.702Z,22.13
2018-12-30T18:27:12.934Z,22.20
2018-12-30T18:29:43.682Z,21.80
2018-12-30T18:32:11.910Z,22.17
2018-12-30T18:34:40.027Z,17.40
2018-12-30T18:37:08.230Z,23.50
2018-12-30T18:39:37.978Z,23.33
2018-12-30T18:42:07.681Z,21.33
2018-12-30T18:44:36.118Z,22.47
2018-12-30T18:47:04.274Z,19.07
2018-12-30T18:49:33.665Z,21.07
2018-12-30T18:52:01.870Z,23.93
2018-12-30T18:54:30.277Z,17.13
2018-12-30T18:56:58.705Z,19.17
2018-12-30T18:59:26.966Z,26.63
2018-12-30T19:01:55.331Z,23.27
2018-12-30T19:04:24.586Z,21.67
2018-12-30T19:06:52.778Z,19.67
2018-12-30T19:09:21.705Z,15.93
2018-12-30T19:11:49.915Z,19.40
2018-12-30T19:14:18.055Z,18.43
2018-12-30T19:16:46.227Z,27.87
2018-12-30T19:19:14.539Z,22.37
2018-12-30T19:21:42.717Z,25.37
2018-12-30T19:24:11.133Z,20.93
2018-12-30T19:26:39.347Z,15.43
2018-12-30T19:29:07.507Z,21.83
2018-12-30T19:31:35.695Z,17.98
2018-12-30T19:34:03.874Z,21.97
2018-12-30T19:36:32.009Z,24.87
2018-12-30T19:39:00.209Z,18.07
2018-12-30T19:41:28.388Z,26.47
2018-12-30T19:43:56.566Z,26.10
2018-12-30T19:46:24.728Z,20.30
2018-12-30T19:48:53.930Z,23.80
2018-12-30T19:51:24.043Z,25.00
2018-12-30T19:53:52.230Z,21.10
2018-12-30T19:56:21.988Z,27.53
2018-12-30T19:58:48.585Z,24.43
2018-12-30T20:01:16.736Z,21.37
2018-12-30T20:03:44.838Z,24.57
2018-12-30T20:06:12.996Z,26.67
2018-12-30T20:08:41.224Z,33.97
2018-12-30T20:11:14.520Z,35.43
2018-12-30T20:13:43.172Z,31.87
2018-12-30T20:16:11.556Z,26.67
2018-12-30T20:18:39.682Z,25.77
2018-12-30T20:21:08.168Z,29.77
2018-12-30T20:23:36.344Z,28.00
2018-12-30T20:26:04.526Z,25.37
2018-12-30T20:28:32.685Z,32.10
2018-12-30T20:31:01.132Z,26.47
2018-12-30T20:33:29.357Z,21.67
2018-12-30T20:35:58.539Z,24.43
2018-12-30T20:38:27.112Z,24.20
2018-12-30T20:40:55.190Z,28.63
2018-12-30T20:43:23.380Z,26.23
2018-12-30T20:45:51.547Z,27.00
2018-12-30T20:48:20.007Z,32.40
2018-12-30T20:50:48.195Z,32.70
2018-12-30T20:53:16.430Z,27.90
2018-12-30T20:55:44.786Z,27.57
2018-12-30T20:58:12.933Z,27.60
2018-12-30T21:00:41.088Z,29.33
2018-12-30T21:03:09.830Z,34.13
2018-12-30T21:05:38.980Z,26.17
2018-12-30T21:08:07.167Z,24.17
2018-12-30T21:10:35.318Z,27.63
2018-12-30T21:13:03.789Z,31.13
2018-12-30T21:15:31.980Z,27.17
2018-12-30T21:18:00.147Z,27.87
2018-12-30T21:20:28.329Z,31.50
2018-12-30T21:22:56.511Z,33.83
2018-12-30T21:25:25.758Z,28.43
2018-12-30T21:27:53.993Z,37.77
2018-12-30T21:30:22.151Z,25.33
2018-12-30T21:32:50.323Z,32.43
2018-12-30T21:35:18.498Z,29.30
2018-12-30T21:37:46.658Z,25.37
2018-12-30T21:40:14.861Z,32.20
2018-12-30T21:42:44.021Z,27.73
2018-12-30T21:45:15.573Z,26.47
2018-12-30T21:47:43.753Z,31.83
2018-12-30T21:50:11.943Z,35.53
2018-12-30T21:52:40.150Z,35.17
2018-12-30T21:55:08.807Z,27.03
2018-12-30T21:57:36.952Z,30.07
2018-12-30T22:00:06.575Z,26.27
2018-12-30T22:02:34.747Z,33.23
2018-12-30T22:05:02.936Z,31.87
2018-12-30T22:07:31.096Z,29.80
2018-12-30T22:09:59.267Z,28.60
2018-12-30T22:12:27.451Z,26.53
2018-12-30T22:14:56.238Z,28.38
2018-12-30T22:17:24.424Z,28.03
2018-12-30T22:19:52.584Z,26.17
2018-12-30T22:22:20.741Z,26.33
2018-12-30T22:24:49.157Z,25.40
2018-12-30T22:27:17.280Z,34.13
2018-12-30T22:29:45.749Z,29.70
2018-12-30T22:32:13.920Z,26.57
2018-12-30T22:34:42.350Z,29.13
2018-12-30T22:37:10.502Z,24.63
2018-12-30T22:39:38.912Z,27.50
2018-12-30T22:42:07.090Z,31.13
2018-12-30T22:44:35.230Z,24.27
2018-12-30T22:47:03.428Z,28.17
2018-12-30T22:49:31.569Z,27.23
2018-12-30T22:51:59.749Z,29.10
2018-12-30T22:54:28.156Z,29.70
2018-12-30T22:56:56.394Z,30.57
2018-12-30T22:59:24.579Z,28.93
2018-12-30T23:01:52.756Z,33.70
2018-12-30T23:04:20.904Z,28.93
2018-12-30T23:06:49.123Z,26.60
2018-12-30T23:09:17.492Z,27.13
2018-12-30T23:11:45.889Z,33.17
2018-12-30T23:14:14.289Z,32.07
2018-12-30T23:16:42.888Z,30.40
2018-12-30T23:19:11.317Z,34.93
2018-12-30T23:21:39.493Z,28.03
2018-12-30T23:24:07.638Z,31.93
2018-12-30T23:26:36.064Z,29.43
2018-12-30T23:29:04.203Z,24.97
2018-12-30T23:31:32.361Z,32.73
2018-12-30T23:34:00.530Z,30.10
2018-12-30T23:36:28.707Z,32.93
2018-12-30T23:38:56.882Z,34.73
2018-12-30T23:41:25.039Z,40.00
2018-12-30T23:43:53.225Z,34.70
2018-12-30T23:46:21.417Z,34.77
2018-12-30T23:48:49.583Z,37.43
2018-12-30T23:51:17.930Z,37.87
2018-12-30T23:53:46.120Z,36.03
2018-12-30T23:56:14.302Z,34.67
2018-12-30T23:58:42.582Z,35.40
